sensor_id;sensor_type;location;lat;lon;timestamp;P1;durP1;ratioP1;P2;durP2;ratioP2
5710;SDS011;61291;52.524;13.422;2024-02-15T00:01:20;77.20;;;71.80;;
5710;SDS011;61291;52.524;13.422;2024-02-15T00:03:46;77.03;;;71.33;;
5710;SDS011;61291;52.524;13.422;2024-02-15T00:06:11;79.10;;;74.00;;
5710;SDS011;61291;52.524;13.422;2024-02-15T00:08:37;79.37;;;74.07;;
5710;SDS011;61291;52.524;13.422;2024-02-15T00:11:02;81.73;;;75.50;;
5710;SDS011;61291;52.524;13.422;2024-02-15T00:13:28;80.80;;;74.90;;
5710;SDS011;61291;52.524;13.422;2024-02-15T00:15:54;78.77;;;73.27;;
5710;SDS011;61291;52.524;13.422;2024-02-15T00:18:20;76.80;;;71.70;;
5710;SDS011;61291;52.524;13.422;2024-02-15T00:20:46;79.37;;;73.50;;
5710;SDS011;61291;52.524;13.422;2024-02-15T00:23:11;76.50;;;71.00;;
5710;SDS011;61291;52.524;13.422;2024-02-15T00:25:37;80.00;;;74.60;;
5710;SDS011;61291;52.524;13.422;2024-02-15T00:28:02;80.47;;;74.70;;
5710;SDS011;61291;52.524;13.422;2024-02-15T00:30:28;80.63;;;74.87;;
5710;SDS011;61291;52.524;13.422;2024-02-15T00:32:54;79.33;;;73.40;;
5710;SDS011;61291;52.524;13.422;2024-02-15T00:35:20;79.90;;;74.40;;
5710;SDS011;61291;52.524;13.422;2024-02-15T00:37:45;78.67;;;72.83;;
5710;SDS011;61291;52.524;13.422;2024-02-15T00:40:11;78.77;;;73.43;;
5710;SDS011;61291;52.524;13.422;2024-02-15T00:42:36;82.37;;;76.07;;
5710;SDS011;61291;52.524;13.422;2024-02-15T00:45:03;80.23;;;74.73;;
5710;SDS011;61291;52.524;13.422;2024-02-15T00:47:29;78.63;;;73.13;;
5710;SDS011;61291;52.524;13.422;2024-02-15T00:49:55;84.20;;;78.20;;
5710;SDS011;61291;52.524;13.422;2024-02-15T00:52:20;84.17;;;77.87;;
5710;SDS011;61291;52.524;13.422;2024-02-15T00:54:46;82.23;;;76.30;;
5710;SDS011;61291;52.524;13.422;2024-02-15T00:57:12;83.60;;;77.77;;
5710;SDS011;61291;52.524;13.422;2024-02-15T00:59:37;82.50;;;76.80;;
5710;SDS011;61291;52.524;13.422;2024-02-15T01:02:03;83.93;;;77.67;;
5710;SDS011;61291;52.524;13.422;2024-02-15T01:04:30;82.47;;;76.57;;
5710;SDS011;61291;52.524;13.422;2024-02-15T01:06:55;83.30;;;77.50;;
5710;SDS011;61291;52.524;13.422;2024-02-15T01:09:21;83.67;;;77.67;;
5710;SDS011;61291;52.524;13.422;2024-02-15T01:11:47;86.90;;;80.20;;
5710;SDS011;61291;52.524;13.422;2024-02-15T01:14:13;86.03;;;79.90;;
5710;SDS011;61291;52.524;13.422;2024-02-15T01:16:40;89.93;;;83.20;;
5710;SDS011;61291;52.524;13.422;2024-02-15T01:19:06;87.83;;;81.63;;
5710;SDS011;61291;52.524;13.422;2024-02-15T01:21:31;87.57;;;81.10;;
5710;SDS011;61291;52.524;13.422;2024-02-15T01:23:59;91.30;;;84.77;;
5710;SDS011;61291;52.524;13.422;2024-02-15T01:26:26;89.73;;;83.33;;
5710;SDS011;61291;52.524;13.422;2024-02-15T01:28:51;89.93;;;83.13;;
5710;SDS011;61291;52.524;13.422;2024-02-15T01:31:17;89.20;;;82.97;;
5710;SDS011;61291;52.524;13.422;2024-02-15T01:33:43;90.33;;;83.47;;
5710;SDS011;61291;52.524;13.422;2024-02-15T01:36:13;91.27;;;84.90;;
5710;SDS011;61291;52.524;13.422;2024-02-15T01:38:40;91.00;;;84.10;;
5710;SDS011;61291;52.524;13.422;2024-02-15T01:41:06;91.83;;;84.37;;
5710;SDS011;61291;52.524;13.422;2024-02-15T01:43:33;91.93;;;84.60;;
5710;SDS011;61291;52.524;13.422;2024-02-15T01:45:58;90.57;;;83.43;;
5710;SDS011;61291;52.524;13.422;2024-02-15T01:48:28;89.40;;;82.80;;
5710;SDS011;61291;52.524;13.422;2024-02-15T01:50:54;90.70;;;84.00;;
5710;SDS011;61291;52.524;13.422;2024-02-15T01:53:20;90.17;;;83.53;;
5710;SDS011;61291;52.524;13.422;2024-02-15T01:55:46;90.00;;;83.40;;
5710;SDS011;61291;52.524;13.422;2024-02-15T01:58:12;89.27;;;82.17;;
5710;SDS011;61291;52.524;13.422;2024-02-15T02:00:37;88.03;;;81.23;;
5710;SDS011;61291;52.524;13.422;2024-02-15T02:03:04;88.47;;;81.80;;
5710;SDS011;61291;52.524;13.422;2024-02-15T02:05:30;91.40;;;84.70;;
5710;SDS011;61291;52.524;13.422;2024-02-15T02:07:56;91.37;;;84.50;;
5710;SDS011;61291;52.524;13.422;2024-02-15T02:10:26;93.30;;;85.90;;
5710;SDS011;61291;52.524;13.422;2024-02-15T02:12:52;94.73;;;87.53;;
5710;SDS011;61291;52.524;13.422;2024-02-15T02:15:18;90.63;;;84.10;;
5710;SDS011;61291;52.524;13.422;2024-02-15T02:17:48;92.20;;;84.30;;
5710;SDS011;61291;52.524;13.422;2024-02-15T02:20:15;91.20;;;84.53;;
5710;SDS011;61291;52.524;13.422;2024-02-15T02:22:41;89.10;;;82.77;;
5710;SDS011;61291;52.524;13.422;2024-02-15T02:25:10;89.87;;;83.13;;
5710;SDS011;61291;52.524;13.422;2024-02-15T02:27:38;90.60;;;83.60;;
5710;SDS011;61291;52.524;13.422;2024-02-15T02:30:21;91.60;;;84.43;;
5710;SDS011;61291;52.524;13.422;2024-02-15T02:32:48;91.32;;;84.43;;
5710;SDS011;61291;52.524;13.422;2024-02-15T02:35:13;93.80;;;86.60;;
5710;SDS011;61291;52.524;13.422;2024-02-15T02:37:40;92.60;;;85.80;;
5710;SDS011;61291;52.524;13.422;2024-02-15T02:40:07;92.03;;;84.93;;
5710;SDS011;61291;52.524;13.422;2024-02-15T02:42:37;91.43;;;84.37;;
5710;SDS011;61291;52.524;13.422;2024-02-15T02:45:18;91.77;;;84.60;;
5710;SDS011;61291;52.524;13.422;2024-02-15T02:47:47;92.00;;;84.30;;
5710;SDS011;61291;52.524;13.422;2024-02-15T02:50:16;93.03;;;85.30;;
5710;SDS011;61291;52.524;13.422;2024-02-15T02:52:42;92.07;;;85.17;;
5710;SDS011;61291;52.524;13.422;2024-02-15T02:55:09;90.67;;;84.00;;
5710;SDS011;61291;52.524;13.422;2024-02-15T02:57:34;93.00;;;85.50;;
5710;SDS011;61291;52.524;13.422;2024-02-15T03:00:05;93.00;;;86.00;;
5710;SDS011;61291;52.524;13.422;2024-02-15T03:02:33;93.00;;;85.47;;
5710;SDS011;61291;52.524;13.422;2024-02-15T03:05:02;97.87;;;90.37;;
5710;SDS011;61291;52.524;13.422;2024-02-15T03:07:29;95.00;;;87.60;;
5710;SDS011;61291;52.524;13.422;2024-02-15T03:09:57;94.50;;;87.17;;
5710;SDS011;61291;52.524;13.422;2024-02-15T03:12:22;99.53;;;91.07;;
5710;SDS011;61291;52.524;13.422;2024-02-15T03:14:48;97.97;;;90.40;;
5710;SDS011;61291;52.524;13.422;2024-02-15T03:17:13;94.20;;;87.10;;
5710;SDS011;61291;52.524;13.422;2024-02-15T03:19:39;96.60;;;89.30;;
5710;SDS011;61291;52.524;13.422;2024-02-15T03:22:05;93.63;;;86.17;;
5710;SDS011;61291;52.524;13.422;2024-02-15T03:24:31;94.50;;;87.10;;
5710;SDS011;61291;52.524;13.422;2024-02-15T03:26:56;97.07;;;89.70;;
5710;SDS011;61291;52.524;13.422;2024-02-15T03:29:22;99.70;;;91.17;;
5710;SDS011;61291;52.524;13.422;2024-02-15T03:31:47;96.60;;;89.23;;
5710;SDS011;61291;52.524;13.422;2024-02-15T03:34:14;92.97;;;85.37;;
5710;SDS011;61291;52.524;13.422;2024-02-15T03:36:40;92.67;;;85.33;;
5710;SDS011;61291;52.524;13.422;2024-02-15T03:39:06;98.67;;;90.90;;
5710;SDS011;61291;52.524;13.422;2024-02-15T03:41:33;96.00;;;87.73;;
5710;SDS011;61291;52.524;13.422;2024-02-15T03:43:58;93.77;;;86.00;;
5710;SDS011;61291;52.524;13.422;2024-02-15T03:46:25;94.30;;;86.37;;
5710;SDS011;61291;52.524;13.422;2024-02-15T03:48:50;95.67;;;88.27;;
5710;SDS011;61291;52.524;13.422;2024-02-15T03:51:17;97.07;;;88.77;;
5710;SDS011;61291;52.524;13.422;2024-02-15T03:53:45;90.50;;;83.17;;
5710;SDS011;61291;52.524;13.422;2024-02-15T03:56:12;93.00;;;85.50;;
5710;SDS011;61291;52.524;13.422;2024-02-15T03:58:38;94.37;;;86.70;;
5710;SDS011;61291;52.524;13.422;2024-02-15T04:01:03;97.13;;;89.33;;
5710;SDS011;61291;52.524;13.422;2024-02-15T04:03:34;96.00;;;88.30;;
5710;SDS011;61291;52.524;13.422;2024-02-15T04:06:00;95.87;;;87.60;;
5710;SDS011;61291;52.524;13.422;2024-02-15T04:08:26;97.17;;;89.13;;
5710;SDS011;61291;52.524;13.422;2024-02-15T04:10:52;93.83;;;86.20;;
5710;SDS011;61291;52.524;13.422;2024-02-15T04:13:18;96.73;;;89.13;;
5710;SDS011;61291;52.524;13.422;2024-02-15T04:15:44;97.13;;;88.43;;
5710;SDS011;61291;52.524;13.422;2024-02-15T04:18:12;95.93;;;87.90;;
5710;SDS011;61291;52.524;13.422;2024-02-15T04:20:39;95.87;;;87.50;;
5710;SDS011;61291;52.524;13.422;2024-02-15T04:23:09;91.90;;;83.40;;
5710;SDS011;61291;52.524;13.422;2024-02-15T04:25:35;94.73;;;86.37;;
5710;SDS011;61291;52.524;13.422;2024-02-15T04:28:01;90.63;;;81.73;;
5710;SDS011;61291;52.524;13.422;2024-02-15T04:30:28;94.00;;;86.10;;
5710;SDS011;61291;52.524;13.422;2024-02-15T04:32:57;95.73;;;87.23;;
5710;SDS011;61291;52.524;13.422;2024-02-15T04:35:23;93.47;;;85.50;;
5710;SDS011;61291;52.524;13.422;2024-02-15T04:37:51;94.60;;;86.37;;
5710;SDS011;61291;52.524;13.422;2024-02-15T04:40:18;93.93;;;86.07;;
5710;SDS011;61291;52.524;13.422;2024-02-15T04:42:44;93.00;;;84.73;;
5710;SDS011;61291;52.524;13.422;2024-02-15T04:45:12;94.03;;;85.40;;
5710;SDS011;61291;52.524;13.422;2024-02-15T04:47:39;94.33;;;85.43;;
5710;SDS011;61291;52.524;13.422;2024-02-15T04:50:10;93.73;;;85.50;;
5710;SDS011;61291;52.524;13.422;2024-02-15T04:52:36;91.03;;;82.17;;
5710;SDS011;61291;52.524;13.422;2024-02-15T04:55:01;94.30;;;85.50;;
5710;SDS011;61291;52.524;13.422;2024-02-15T04:57:30;89.90;;;82.00;;
5710;SDS011;61291;52.524;13.422;2024-02-15T04:59:55;98.20;;;89.20;;
5710;SDS011;61291;52.524;13.422;2024-02-15T05:02:21;95.47;;;86.90;;
5710;SDS011;61291;52.524;13.422;2024-02-15T05:04:49;90.73;;;82.47;;
5710;SDS011;61291;52.524;13.422;2024-02-15T05:07:20;80.50;;;73.00;;
5710;SDS011;61291;52.524;13.422;2024-02-15T05:09:47;98.80;;;90.00;;
5710;SDS011;61291;52.524;13.422;2024-02-15T05:12:22;88.57;;;80.37;;
5710;SDS011;61291;52.524;13.422;2024-02-15T05:14:52;94.70;;;86.47;;
5710;SDS011;61291;52.524;13.422;2024-02-15T05:17:18;95.03;;;85.40;;
5710;SDS011;61291;52.524;13.422;2024-02-15T05:19:43;95.33;;;87.27;;
5710;SDS011;61291;52.524;13.422;2024-02-15T05:22:09;91.23;;;83.33;;
5710;SDS011;61291;52.524;13.422;2024-02-15T05:24:36;91.87;;;83.97;;
5710;SDS011;61291;52.524;13.422;2024-02-15T05:27:03;89.17;;;80.97;;
5710;SDS011;61291;52.524;13.422;2024-02-15T05:29:29;87.60;;;79.47;;
5710;SDS011;61291;52.524;13.422;2024-02-15T05:31:58;94.90;;;86.03;;
5710;SDS011;61291;52.524;13.422;2024-02-15T05:34:24;95.07;;;87.03;;
5710;SDS011;61291;52.524;13.422;2024-02-15T05:36:50;96.70;;;87.70;;
5710;SDS011;61291;52.524;13.422;2024-02-15T05:39:16;90.20;;;82.10;;
5710;SDS011;61291;52.524;13.422;2024-02-15T05:41:45;93.00;;;84.70;;
5710;SDS011;61291;52.524;13.422;2024-02-15T05:44:10;85.23;;;77.80;;
5710;SDS011;61291;52.524;13.422;2024-02-15T05:46:36;88.27;;;79.50;;
5710;SDS011;61291;52.524;13.422;2024-02-15T05:49:05;91.90;;;83.37;;
5710;SDS011;61291;52.524;13.422;2024-02-15T05:51:30;84.77;;;76.20;;
5710;SDS011;61291;52.524;13.422;2024-02-15T05:53:57;90.87;;;82.33;;
5710;SDS011;61291;52.524;13.422;2024-02-15T05:56:25;91.53;;;82.40;;
5710;SDS011;61291;52.524;13.422;2024-02-15T05:58:51;89.83;;;81.90;;
5710;SDS011;61291;52.524;13.422;2024-02-15T06:01:17;88.73;;;81.43;;
5710;SDS011;61291;52.524;13.422;2024-02-15T06:03:43;93.87;;;86.23;;
5710;SDS011;61291;52.524;13.422;2024-02-15T06:06:09;97.27;;;88.70;;
5710;SDS011;61291;52.524;13.422;2024-02-15T06:08:36;95.80;;;87.10;;
5710;SDS011;61291;52.524;13.422;2024-02-15T06:11:02;96.67;;;88.37;;
5710;SDS011;61291;52.524;13.422;2024-02-15T06:13:30;90.13;;;81.03;;
5710;SDS011;61291;52.524;13.422;2024-02-15T06:15:56;94.20;;;86.17;;
5710;SDS011;61291;52.524;13.422;2024-02-15T06:18:26;94.10;;;85.47;;
5710;SDS011;61291;52.524;13.422;2024-02-15T06:20:54;88.73;;;80.37;;
5710;SDS011;61291;52.524;13.422;2024-02-15T06:23:22;90.30;;;82.63;;
5710;SDS011;61291;52.524;13.422;2024-02-15T06:25:48;88.80;;;79.60;;
5710;SDS011;61291;52.524;13.422;2024-02-15T06:28:16;86.20;;;78.50;;
5710;SDS011;61291;52.524;13.422;2024-02-15T06:31:05;87.37;;;79.37;;
5710;SDS011;61291;52.524;13.422;2024-02-15T06:33:50;87.77;;;79.87;;
5710;SDS011;61291;52.524;13.422;2024-02-15T06:36:34;88.57;;;80.17;;
5710;SDS011;61291;52.524;13.422;2024-02-15T06:39:22;87.07;;;78.87;;
5710;SDS011;61291;52.524;13.422;2024-02-15T06:42:03;83.77;;;75.63;;
5710;SDS011;61291;52.524;13.422;2024-02-15T06:44:29;83.00;;;75.20;;
5710;SDS011;61291;52.524;13.422;2024-02-15T06:46:55;83.50;;;75.60;;
5710;SDS011;61291;52.524;13.422;2024-02-15T06:49:21;84.73;;;77.23;;
5710;SDS011;61291;52.524;13.422;2024-02-15T06:51:48;90.23;;;81.87;;
5710;SDS011;61291;52.524;13.422;2024-02-15T06:54:13;86.10;;;77.97;;
5710;SDS011;61291;52.524;13.422;2024-02-15T06:56:39;86.30;;;76.10;;
5710;SDS011;61291;52.524;13.422;2024-02-15T06:59:08;86.60;;;78.60;;
5710;SDS011;61291;52.524;13.422;2024-02-15T07:01:35;87.23;;;79.73;;
5710;SDS011;61291;52.524;13.422;2024-02-15T07:04:00;90.77;;;82.00;;
5710;SDS011;61291;52.524;13.422;2024-02-15T07:06:28;87.37;;;80.13;;
5710;SDS011;61291;52.524;13.422;2024-02-15T07:08:54;88.47;;;79.73;;
5710;SDS011;61291;52.524;13.422;2024-02-15T07:11:21;87.80;;;80.13;;
5710;SDS011;61291;52.524;13.422;2024-02-15T07:13:47;84.30;;;76.97;;
5710;SDS011;61291;52.524;13.422;2024-02-15T07:16:13;85.63;;;77.93;;
5710;SDS011;61291;52.524;13.422;2024-02-15T07:18:40;85.50;;;77.97;;
5710;SDS011;61291;52.524;13.422;2024-02-15T07:21:06;87.80;;;80.00;;
5710;SDS011;61291;52.524;13.422;2024-02-15T07:23:36;85.60;;;77.97;;
5710;SDS011;61291;52.524;13.422;2024-02-15T07:26:01;88.67;;;80.00;;
5710;SDS011;61291;52.524;13.422;2024-02-15T07:28:28;85.87;;;78.13;;
5710;SDS011;61291;52.524;13.422;2024-02-15T07:30:55;89.43;;;80.57;;
5710;SDS011;61291;52.524;13.422;2024-02-15T07:33:21;82.88;;;74.85;;
5710;SDS011;61291;52.524;13.422;2024-02-15T07:35:48;93.73;;;85.53;;
5710;SDS011;61291;52.524;13.422;2024-02-15T07:38:17;86.50;;;79.20;;
5710;SDS011;61291;52.524;13.422;2024-02-15T07:40:42;82.77;;;75.73;;
5710;SDS011;61291;52.524;13.422;2024-02-15T07:43:09;75.38;;;68.90;;
5710;SDS011;61291;52.524;13.422;2024-02-15T07:45:35;86.50;;;79.43;;
5710;SDS011;61291;52.524;13.422;2024-02-15T07:48:02;89.87;;;82.67;;
5710;SDS011;61291;52.524;13.422;2024-02-15T07:50:29;84.83;;;77.83;;
5710;SDS011;61291;52.524;13.422;2024-02-15T07:52:55;83.80;;;77.40;;
5710;SDS011;61291;52.524;13.422;2024-02-15T07:55:21;84.80;;;78.23;;
5710;SDS011;61291;52.524;13.422;2024-02-15T07:57:50;81.90;;;75.27;;
5710;SDS011;61291;52.524;13.422;2024-02-15T08:00:16;84.90;;;77.57;;
5710;SDS011;61291;52.524;13.422;2024-02-15T08:02:45;84.67;;;78.23;;
5710;SDS011;61291;52.524;13.422;2024-02-15T08:05:11;85.20;;;78.30;;
5710;SDS011;61291;52.524;13.422;2024-02-15T08:07:40;88.03;;;81.13;;
5710;SDS011;61291;52.524;13.422;2024-02-15T08:10:07;89.57;;;81.50;;
5710;SDS011;61291;52.524;13.422;2024-02-15T08:12:37;91.30;;;83.83;;
5710;SDS011;61291;52.524;13.422;2024-02-15T08:15:17;88.20;;;81.70;;
5710;SDS011;61291;52.524;13.422;2024-02-15T08:17:43;96.37;;;88.37;;
5710;SDS011;61291;52.524;13.422;2024-02-15T08:20:13;91.47;;;84.73;;
5710;SDS011;61291;52.524;13.422;2024-02-15T08:22:39;75.72;;;69.82;;
5710;SDS011;61291;52.524;13.422;2024-02-15T08:25:09;88.47;;;82.07;;
5710;SDS011;61291;52.524;13.422;2024-02-15T08:27:39;87.37;;;80.63;;
5710;SDS011;61291;52.524;13.422;2024-02-15T08:30:08;83.57;;;77.60;;
5710;SDS011;61291;52.524;13.422;2024-02-15T08:32:34;87.93;;;80.73;;
5710;SDS011;61291;52.524;13.422;2024-02-15T08:35:00;86.63;;;79.83;;
5710;SDS011;61291;52.524;13.422;2024-02-15T08:37:25;81.43;;;75.13;;
5710;SDS011;61291;52.524;13.422;2024-02-15T08:39:51;84.70;;;78.10;;
5710;SDS011;61291;52.524;13.422;2024-02-15T08:42:17;86.57;;;79.87;;
5710;SDS011;61291;52.524;13.422;2024-02-15T08:44:47;85.80;;;79.17;;
5710;SDS011;61291;52.524;13.422;2024-02-15T08:47:13;81.87;;;74.40;;
5710;SDS011;61291;52.524;13.422;2024-02-15T08:49:38;82.30;;;75.70;;
5710;SDS011;61291;52.524;13.422;2024-02-15T08:52:05;85.57;;;78.80;;
5710;SDS011;61291;52.524;13.422;2024-02-15T08:54:32;67.05;;;61.63;;
5710;SDS011;61291;52.524;13.422;2024-02-15T08:56:58;83.13;;;76.33;;
5710;SDS011;61291;52.524;13.422;2024-02-15T08:59:23;83.07;;;76.63;;
5710;SDS011;61291;52.524;13.422;2024-02-15T09:01:50;82.33;;;75.83;;
5710;SDS011;61291;52.524;13.422;2024-02-15T09:04:16;83.37;;;76.37;;
5710;SDS011;61291;52.524;13.422;2024-02-15T09:06:41;81.93;;;75.67;;
5710;SDS011;61291;52.524;13.422;2024-02-15T09:09:08;83.87;;;77.87;;
5710;SDS011;61291;52.524;13.422;2024-02-15T09:11:33;83.10;;;76.70;;
5710;SDS011;61291;52.524;13.422;2024-02-15T09:13:59;83.93;;;77.73;;
5710;SDS011;61291;52.524;13.422;2024-02-15T09:16:25;80.30;;;74.10;;
5710;SDS011;61291;52.524;13.422;2024-02-15T09:18:50;85.13;;;78.50;;
5710;SDS011;61291;52.524;13.422;2024-02-15T09:21:16;77.77;;;71.77;;
5710;SDS011;61291;52.524;13.422;2024-02-15T09:23:41;85.53;;;77.83;;
5710;SDS011;61291;52.524;13.422;2024-02-15T09:26:07;83.67;;;75.93;;
5710;SDS011;61291;52.524;13.422;2024-02-15T09:28:34;78.47;;;72.20;;
5710;SDS011;61291;52.524;13.422;2024-02-15T09:31:00;79.50;;;72.97;;
5710;SDS011;61291;52.524;13.422;2024-02-15T09:33:26;83.83;;;77.30;;
5710;SDS011;61291;52.524;13.422;2024-02-15T09:35:52;84.60;;;77.80;;
5710;SDS011;61291;52.524;13.422;2024-02-15T09:38:20;80.33;;;73.93;;
5710;SDS011;61291;52.524;13.422;2024-02-15T09:40:48;82.50;;;76.10;;
5710;SDS011;61291;52.524;13.422;2024-02-15T09:43:14;70.78;;;65.03;;
5710;SDS011;61291;52.524;13.422;2024-02-15T09:45:39;78.60;;;72.77;;
5710;SDS011;61291;52.524;13.422;2024-02-15T09:48:05;77.43;;;71.53;;
5710;SDS011;61291;52.524;13.422;2024-02-15T09:50:34;81.77;;;75.33;;
5710;SDS011;61291;52.524;13.422;2024-02-15T09:53:00;79.90;;;73.80;;
5710;SDS011;61291;52.524;13.422;2024-02-15T09:55:28;81.80;;;75.80;;
5710;SDS011;61291;52.524;13.422;2024-02-15T09:57:54;78.20;;;72.13;;
5710;SDS011;61291;52.524;13.422;2024-02-15T10:00:20;79.53;;;73.23;;
5710;SDS011;61291;52.524;13.422;2024-02-15T10:02:52;78.03;;;72.40;;
5710;SDS011;61291;52.524;13.422;2024-02-15T10:05:18;77.87;;;72.20;;
5710;SDS011;61291;52.524;13.422;2024-02-15T10:07:44;79.60;;;73.60;;
5710;SDS011;61291;52.524;13.422;2024-02-15T10:10:17;78.10;;;72.50;;
5710;SDS011;61291;52.524;13.422;2024-02-15T10:12:44;76.63;;;70.93;;
5710;SDS011;61291;52.524;13.422;2024-02-15T10:15:26;78.10;;;72.40;;
5710;SDS011;61291;52.524;13.422;2024-02-15T10:17:54;78.80;;;72.70;;
5710;SDS011;61291;52.524;13.422;2024-02-15T10:20:20;79.97;;;73.87;;
5710;SDS011;61291;52.524;13.422;2024-02-15T10:22:46;80.80;;;75.00;;
5710;SDS011;61291;52.524;13.422;2024-02-15T10:25:11;77.03;;;71.43;;
5710;SDS011;61291;52.524;13.422;2024-02-15T10:27:39;77.37;;;71.77;;
5710;SDS011;61291;52.524;13.422;2024-02-15T10:30:18;74.37;;;68.50;;
5710;SDS011;61291;52.524;13.422;2024-02-15T10:32:44;75.77;;;69.80;;
5710;SDS011;61291;52.524;13.422;2024-02-15T10:35:15;74.33;;;69.00;;
5710;SDS011;61291;52.524;13.422;2024-02-15T10:37:44;74.47;;;68.70;;
5710;SDS011;61291;52.524;13.422;2024-02-15T10:40:09;75.10;;;69.30;;
5710;SDS011;61291;52.524;13.422;2024-02-15T10:42:38;74.43;;;68.63;;
5710;SDS011;61291;52.524;13.422;2024-02-15T10:45:07;72.80;;;67.30;;
5710;SDS011;61291;52.524;13.422;2024-02-15T10:47:35;73.80;;;67.50;;
5710;SDS011;61291;52.524;13.422;2024-02-15T10:50:03;70.70;;;65.37;;
5710;SDS011;61291;52.524;13.422;2024-02-15T10:52:31;75.20;;;69.63;;
5710;SDS011;61291;52.524;13.422;2024-02-15T10:55:01;69.43;;;64.20;;
5710;SDS011;61291;52.524;13.422;2024-02-15T10:57:29;72.60;;;67.10;;
5710;SDS011;61291;52.524;13.422;2024-02-15T11:00:02;74.43;;;68.20;;
5710;SDS011;61291;52.524;13.422;2024-02-15T11:02:38;75.93;;;69.33;;
5710;SDS011;61291;52.524;13.422;2024-02-15T11:05:10;75.80;;;69.67;;
5710;SDS011;61291;52.524;13.422;2024-02-15T11:07:39;74.30;;;68.60;;
5710;SDS011;61291;52.524;13.422;2024-02-15T11:10:06;72.80;;;67.30;;
5710;SDS011;61291;52.524;13.422;2024-02-15T11:12:35;78.60;;;72.80;;
5710;SDS011;61291;52.524;13.422;2024-02-15T11:15:02;74.77;;;68.80;;
5710;SDS011;61291;52.524;13.422;2024-02-15T11:20:10;74.70;;;69.53;;
5710;SDS011;61291;52.524;13.422;2024-02-15T11:22:56;75.17;;;70.10;;
5710;SDS011;61291;52.524;13.422;2024-02-15T11:25:31;70.67;;;65.47;;
5710;SDS011;61291;52.524;13.422;2024-02-15T11:30:46;69.27;;;63.90;;
5710;SDS011;61291;52.524;13.422;2024-02-15T11:33:27;70.00;;;65.03;;
5710;SDS011;61291;52.524;13.422;2024-02-15T11:36:11;68.37;;;63.30;;
5710;SDS011;61291;52.524;13.422;2024-02-15T11:38:38;72.20;;;67.00;;
5710;SDS011;61291;52.524;13.422;2024-02-15T11:41:08;72.13;;;67.23;;
5710;SDS011;61291;52.524;13.422;2024-02-15T11:43:48;72.37;;;67.27;;
5710;SDS011;61291;52.524;13.422;2024-02-15T11:46:15;72.67;;;67.43;;
5710;SDS011;61291;52.524;13.422;2024-02-15T11:48:52;73.77;;;68.67;;
5710;SDS011;61291;52.524;13.422;2024-02-15T11:51:34;74.67;;;69.27;;
5710;SDS011;61291;52.524;13.422;2024-02-15T11:54:10;70.03;;;64.70;;
5710;SDS011;61291;52.524;13.422;2024-02-15T11:56:52;74.67;;;68.73;;
5710;SDS011;61291;52.524;13.422;2024-02-15T11:59:42;70.57;;;65.73;;
5710;SDS011;61291;52.524;13.422;2024-02-15T12:02:19;77.10;;;71.70;;
5710;SDS011;61291;52.524;13.422;2024-02-15T12:05:03;72.17;;;66.97;;
5710;SDS011;61291;52.524;13.422;2024-02-15T12:07:49;75.40;;;69.90;;
5710;SDS011;61291;52.524;13.422;2024-02-15T12:10:33;79.23;;;73.73;;
5710;SDS011;61291;52.524;13.422;2024-02-15T12:13:17;65.55;;;60.65;;
5710;SDS011;61291;52.524;13.422;2024-02-15T12:16:03;80.67;;;74.57;;
5710;SDS011;61291;52.524;13.422;2024-02-15T12:18:48;78.27;;;72.50;;
5710;SDS011;61291;52.524;13.422;2024-02-15T12:21:18;73.53;;;67.90;;
5710;SDS011;61291;52.524;13.422;2024-02-15T12:23:48;73.80;;;68.30;;
5710;SDS011;61291;52.524;13.422;2024-02-15T12:26:14;76.40;;;70.70;;
5710;SDS011;61291;52.524;13.422;2024-02-15T12:28:44;71.93;;;66.30;;
5710;SDS011;61291;52.524;13.422;2024-02-15T12:31:09;72.90;;;67.53;;
5710;SDS011;61291;52.524;13.422;2024-02-15T12:33:38;73.07;;;66.23;;
5710;SDS011;61291;52.524;13.422;2024-02-15T12:36:04;73.80;;;67.10;;
5710;SDS011;61291;52.524;13.422;2024-02-15T12:38:33;69.80;;;64.23;;
5710;SDS011;61291;52.524;13.422;2024-02-15T12:41:02;72.20;;;66.90;;
5710;SDS011;61291;52.524;13.422;2024-02-15T12:43:28;70.27;;;64.90;;
5710;SDS011;61291;52.524;13.422;2024-02-15T12:45:54;69.33;;;64.23;;
5710;SDS011;61291;52.524;13.422;2024-02-15T12:48:21;70.00;;;64.90;;
5710;SDS011;61291;52.524;13.422;2024-02-15T12:50:47;70.33;;;65.23;;
5710;SDS011;61291;52.524;13.422;2024-02-15T12:53:12;69.93;;;64.77;;
5710;SDS011;61291;52.524;13.422;2024-02-15T12:55:46;71.27;;;65.70;;
5710;SDS011;61291;52.524;13.422;2024-02-15T12:58:19;71.90;;;66.10;;
5710;SDS011;61291;52.524;13.422;2024-02-15T13:00:45;73.30;;;67.13;;
5710;SDS011;61291;52.524;13.422;2024-02-15T13:03:11;70.23;;;64.83;;
5710;SDS011;61291;52.524;13.422;2024-02-15T13:05:39;73.50;;;67.93;;
5710;SDS011;61291;52.524;13.422;2024-02-15T13:08:04;68.53;;;63.37;;
5710;SDS011;61291;52.524;13.422;2024-02-15T13:10:34;71.73;;;66.30;;
5710;SDS011;61291;52.524;13.422;2024-02-15T13:13:00;70.63;;;65.17;;
5710;SDS011;61291;52.524;13.422;2024-02-15T13:15:26;70.60;;;65.47;;
5710;SDS011;61291;52.524;13.422;2024-02-15T13:17:52;70.30;;;65.20;;
5710;SDS011;61291;52.524;13.422;2024-02-15T13:20:20;73.33;;;66.93;;
5710;SDS011;61291;52.524;13.422;2024-02-15T13:22:57;70.43;;;65.20;;
5710;SDS011;61291;52.524;13.422;2024-02-15T13:25:45;70.87;;;65.70;;
5710;SDS011;61291;52.524;13.422;2024-02-15T13:28:11;68.13;;;62.60;;
5710;SDS011;61291;52.524;13.422;2024-02-15T13:30:37;68.17;;;63.43;;
5710;SDS011;61291;52.524;13.422;2024-02-15T13:33:03;63.60;;;58.50;;
5710;SDS011;61291;52.524;13.422;2024-02-15T13:35:29;71.87;;;66.17;;
5710;SDS011;61291;52.524;13.422;2024-02-15T13:37:56;70.47;;;65.17;;
5710;SDS011;61291;52.524;13.422;2024-02-15T13:40:25;68.93;;;63.10;;
5710;SDS011;61291;52.524;13.422;2024-02-15T13:42:53;71.57;;;66.23;;
5710;SDS011;61291;52.524;13.422;2024-02-15T13:45:38;68.20;;;63.10;;
5710;SDS011;61291;52.524;13.422;2024-02-15T13:48:04;67.63;;;61.97;;
5710;SDS011;61291;52.524;13.422;2024-02-15T13:50:32;68.10;;;63.50;;
5710;SDS011;61291;52.524;13.422;2024-02-15T13:52:58;70.23;;;65.13;;
5710;SDS011;61291;52.524;13.422;2024-02-15T13:55:24;68.30;;;63.70;;
5710;SDS011;61291;52.524;13.422;2024-02-15T13:57:50;67.57;;;62.87;;
5710;SDS011;61291;52.524;13.422;2024-02-15T14:00:17;70.93;;;65.50;;
5710;SDS011;61291;52.524;13.422;2024-02-15T14:02:49;67.90;;;63.30;;
5710;SDS011;61291;52.524;13.422;2024-02-15T14:05:20;74.27;;;69.13;;
5710;SDS011;61291;52.524;13.422;2024-02-15T14:07:56;77.33;;;72.23;;
5710;SDS011;61291;52.524;13.422;2024-02-15T14:10:24;66.43;;;61.93;;
5710;SDS011;61291;52.524;13.422;2024-02-15T14:12:51;67.20;;;62.40;;
5710;SDS011;61291;52.524;13.422;2024-02-15T14:15:20;71.73;;;66.53;;
5710;SDS011;61291;52.524;13.422;2024-02-15T14:17:48;73.97;;;68.20;;
5710;SDS011;61291;52.524;13.422;2024-02-15T14:20:14;72.33;;;67.23;;
5710;SDS011;61291;52.524;13.422;2024-02-15T14:22:40;75.23;;;69.73;;
5710;SDS011;61291;52.524;13.422;2024-02-15T14:25:09;71.53;;;66.03;;
5710;SDS011;61291;52.524;13.422;2024-02-15T14:27:34;77.27;;;71.47;;
5710;SDS011;61291;52.524;13.422;2024-02-15T14:30:00;74.30;;;69.23;;
5710;SDS011;61291;52.524;13.422;2024-02-15T14:32:51;74.30;;;69.40;;